Time;durP1;ratioP1;P1;durP2;ratioP2;P2;SDS_P1;SDS_P2;PMS_P1;PMS_P2;Temp;Humidity;BMP_temperature;BMP_pressure;BME280_temperature;BME280_humidity;BME280_pressure;Samples;Min_cycle;Max_cycle;Signal;HPM_P1;HPM_P2
2021/08/19 00:00:24;;;;;;;0.40;0.40;;;16.40;99.90;;;;;;5037389;28;20930;-81
2021/08/19 00:02:50;;;;;;;0.40;0.40;;;16.40;99.90;;;;;;5037005;28;20466;-81
2021/08/19 00:05:17;;;;;;;0.40;0.30;;;16.40;99.90;;;;;;5037264;28;20443;-81
2021/08/19 00:07:44;;;;;;;0.73;0.40;;;16.40;99.90;;;;;;5037226;28;20454;-80
2021/08/19 00:10:11;;;;;;;0.60;0.43;;;16.40;99.90;;;;;;5036882;28;20821;-80
2021/08/19 00:12:38;;;;;;;0.30;0.30;;;16.40;99.90;;;;;;5036997;28;20481;-80
2021/08/19 00:15:06;;;;;;;5.40;0.50;;;16.40;99.90;;;;;;5037084;28;20446;-81
2021/08/19 00:17:35;;;;;;;0.40;0.30;;;16.40;99.90;;;;;;5037052;28;20450;-81
2021/08/19 00:20:02;;;;;;;0.40;0.40;;;16.40;99.90;;;;;;5037437;28;20451;-80
2021/08/19 00:22:31;;;;;;;0.60;0.50;;;16.40;99.90;;;;;;5036902;28;20463;-80
2021/08/19 00:24:57;;;;;;;0.40;0.30;;;16.40;99.90;;;;;;5036926;28;20458;-81
2021/08/19 00:27:24;;;;;;;0.30;0.30;;;16.40;99.90;;;;;;5036880;28;20447;-80
2021/08/19 00:29:51;;;;;;;0.30;0.30;;;16.40;99.90;;;;;;5036843;28;20484;-80
2021/08/19 00:32:18;;;;;;;0.30;0.30;;;16.40;99.90;;;;;;5036751;28;20466;-80
2021/08/19 00:34:46;;;;;;;0.60;0.40;;;16.40;99.90;;;;;;5036686;28;20486;-80
2021/08/19 00:37:12;;;;;;;2.43;0.40;;;16.40;99.90;;;;;;5036687;28;20450;-80
2021/08/19 00:39:39;;;;;;;1.00;0.80;;;16.40;99.90;;;;;;5036374;28;20470;-81
2021/08/19 00:42:07;;;;;;;0.50;0.40;;;16.40;99.90;;;;;;5036265;28;20536;-80
2021/08/19 00:44:33;;;;;;;1.13;0.60;;;16.40;99.90;;;;;;5036540;28;20473;-81
2021/08/19 00:47:01;;;;;;;0.60;0.33;;;16.40;99.90;;;;;;5036210;28;20939;-80
2021/08/19 00:49:29;;;;;;;1.27;0.53;;;16.30;99.90;;;;;;5036482;28;20461;-80
2021/08/19 00:51:58;;;;;;;0.60;0.60;;;16.30;99.90;;;;;;5036166;28;20958;-80
2021/08/19 00:54:27;;;;;;;1.00;0.30;;;16.30;99.90;;;;;;5036330;28;20493;-81
2021/08/19 00:56:55;;;;;;;0.30;0.30;;;16.30;99.90;;;;;;5036221;28;20946;-86
2021/08/19 00:59:23;;;;;;;0.50;0.50;;;16.20;99.90;;;;;;5036226;28;20451;-86
2021/08/19 01:01:50;;;;;;;0.60;0.40;;;16.20;99.90;;;;;;5036328;28;20474;-85
2021/08/19 01:04:17;;;;;;;0.60;0.40;;;16.20;99.90;;;;;;5036183;28;20451;-85
2021/08/19 01:06:44;;;;;;;0.53;0.50;;;16.20;99.90;;;;;;5035991;28;20965;-80
2021/08/19 01:09:12;;;;;;;0.50;0.50;;;16.20;99.90;;;;;;5034717;28;20451;-79
2021/08/19 01:11:41;;;;;;;0.30;0.30;;;16.20;99.90;;;;;;5036418;28;20789;-79
2021/08/19 01:14:08;;;;;;;0.40;0.40;;;16.20;99.90;;;;;;5035981;28;20483;-80
2021/08/19 01:16:35;;;;;;;0.30;0.30;;;16.20;99.90;;;;;;5035985;28;20450;-81
2021/08/19 01:19:02;;;;;;;1.00;0.57;;;16.20;99.90;;;;;;5035620;28;20458;-81
2021/08/19 01:21:29;;;;;;;0.30;0.30;;;16.20;99.90;;;;;;5035819;28;20451;-81
2021/08/19 01:23:56;;;;;;;0.50;0.40;;;16.20;99.90;;;;;;5035607;28;20462;-81
2021/08/19 01:26:24;;;;;;;0.50;0.30;;;16.20;99.90;;;;;;5035541;28;20446;-81
2021/08/19 01:28:55;;;;;;;0.87;0.50;;;16.20;99.90;;;;;;5035456;28;20957;-81
2021/08/19 01:31:25;;;;;;;0.43;0.40;;;16.20;99.90;;;;;;5035813;28;20435;-81
2021/08/19 01:33:53;;;;;;;0.53;0.53;;;16.10;99.90;;;;;;5035623;28;20467;-81
2021/08/19 01:36:20;;;;;;;0.30;0.30;;;16.20;99.90;;;;;;5035600;28;20458;-81
2021/08/19 01:38:48;;;;;;;0.50;0.40;;;16.20;99.90;;;;;;5035453;28;20486;-81
2021/08/19 01:41:15;;;;;;;0.93;0.43;;;16.20;99.90;;;;;;5035289;28;21011;-80
2021/08/19 01:43:44;;;;;;;0.50;0.40;;;16.20;99.90;;;;;;5035407;28;20470;-81
2021/08/19 01:46:14;;;;;;;0.40;0.30;;;16.10;99.90;;;;;;5035752;28;20485;-80
2021/08/19 01:48:41;;;;;;;0.40;0.30;;;16.10;99.90;;;;;;5035704;28;20426;-80
2021/08/19 01:51:10;;;;;;;0.40;0.37;;;16.10;99.90;;;;;;5035111;28;20439;-79
2021/08/19 01:53:37;;;;;;;0.40;0.40;;;16.10;99.90;;;;;;5035137;28;20497;-80
2021/08/19 01:56:05;;;;;;;0.50;0.50;;;16.10;99.90;;;;;;5035250;28;20458;-79
2021/08/19 01:58:31;;;;;;;0.53;0.37;;;16.10;99.90;;;;;;5034995;28;20435;-79
2021/08/19 02:00:58;;;;;;;0.30;0.30;;;16.10;99.90;;;;;;5035188;28;20446;-80
2021/08/19 02:03:26;;;;;;;0.60;0.30;;;16.10;99.90;;;;;;5034762;28;20978;-79
2021/08/19 02:05:53;;;;;;;0.40;0.30;;;16.00;99.90;;;;;;5035067;28;20457;-80
2021/08/19 02:08:21;;;;;;;0.40;0.40;;;16.10;99.90;;;;;;5034721;28;20911;-79
2021/08/19 02:10:48;;;;;;;0.30;0.30;;;16.10;99.90;;;;;;5035809;28;20446;-79
2021/08/19 02:13:15;;;;;;;0.30;0.20;;;16.10;99.90;;;;;;5034844;28;20466;-85
2021/08/19 02:15:42;;;;;;;0.53;0.30;;;16.00;99.90;;;;;;5035674;28;20455;-85
2021/08/19 02:18:09;;;;;;;0.40;0.40;;;16.00;99.90;;;;;;5035070;28;20451;-86
2021/08/19 02:20:37;;;;;;;0.60;0.40;;;16.00;99.90;;;;;;5035173;28;20806;-86
2021/08/19 02:23:04;;;;;;;0.40;0.20;;;16.00;99.90;;;;;;5034776;28;20489;-86
2021/08/19 02:25:32;;;;;;;1.13;0.40;;;16.00;99.90;;;;;;5034822;28;20447;-85
2021/08/19 02:27:59;;;;;;;1.23;0.30;;;16.00;99.90;;;;;;5034777;28;20442;-85
2021/08/19 02:30:26;;;;;;;0.30;0.30;;;16.00;99.90;;;;;;5035059;28;20447;-85
2021/08/19 02:32:55;;;;;;;0.97;0.30;;;16.00;99.90;;;;;;5034608;28;20467;-85
2021/08/19 02:35:23;;;;;;;0.40;0.37;;;16.00;99.90;;;;;;5034622;28;20522;-85
2021/08/19 02:37:52;;;;;;;0.40;0.30;;;16.00;99.90;;;;;;5034653;28;20454;-85
2021/08/19 02:40:18;;;;;;;0.40;0.40;;;16.10;99.90;;;;;;5034166;28;20540;-85
2021/08/19 02:42:45;;;;;;;1.00;0.30;;;16.10;99.90;;;;;;5034429;28;20470;-85
2021/08/19 02:45:13;;;;;;;0.50;0.50;;;16.10;99.90;;;;;;5034490;28;20808;-85
2021/08/19 02:47:39;;;;;;;0.43;0.43;;;16.10;99.90;;;;;;5034427;28;20457;-85
2021/08/19 02:50:07;;;;;;;0.50;0.40;;;16.10;99.90;;;;;;5034290;28;20439;-85
2021/08/19 02:52:34;;;;;;;0.30;0.30;;;16.10;99.90;;;;;;5034286;28;20477;-85
2021/08/19 02:55:02;;;;;;;0.50;0.50;;;16.10;99.90;;;;;;5033956;28;21067;-85
2021/08/19 02:57:29;;;;;;;0.83;0.40;;;16.10;99.90;;;;;;5034216;28;20457;-85
2021/08/19 02:59:56;;;;;;;0.40;0.40;;;16.10;99.90;;;;;;5034195;28;20811;-86
2021/08/19 03:02:23;;;;;;;0.43;0.40;;;16.10;99.90;;;;;;5033836;28;20458;-85
2021/08/19 03:04:50;;;;;;;0.60;0.40;;;16.00;99.90;;;;;;5033835;28;20439;-85
2021/08/19 03:07:17;;;;;;;0.40;0.30;;;16.10;99.90;;;;;;5033814;28;20431;-85
2021/08/19 03:09:43;;;;;;;0.80;0.80;;;16.00;99.90;;;;;;5034181;28;20446;-85
2021/08/19 03:12:12;;;;;;;0.30;0.30;;;16.00;99.90;;;;;;5033849;28;20469;-85
2021/08/19 03:14:38;;;;;;;0.30;0.30;;;16.00;99.90;;;;;;5033857;28;20479;-85
2021/08/19 03:17:07;;;;;;;0.40;0.30;;;16.00;99.90;;;;;;5035931;28;20439;-86
2021/08/19 03:19:34;;;;;;;0.30;0.30;;;16.00;99.90;;;;;;5034070;28;20443;-85
2021/08/19 03:22:01;;;;;;;0.40;0.30;;;16.00;99.90;;;;;;5033828;28;20450;-85
2021/08/19 03:24:29;;;;;;;0.40;0.40;;;16.00;99.90;;;;;;5033466;28;20449;-86
2021/08/19 03:26:56;;;;;;;0.40;0.40;;;16.00;99.90;;;;;;5033765;28;20454;-86
2021/08/19 03:29:24;;;;;;;0.43;0.43;;;16.00;99.90;;;;;;5033740;28;20818;-85
2021/08/19 03:31:52;;;;;;;0.50;0.47;;;16.00;99.90;;;;;;5032776;28;20467;-85
2021/08/19 03:34:19;;;;;;;0.60;0.30;;;16.00;99.90;;;;;;5033422;28;20482;-85
2021/08/19 03:36:46;;;;;;;0.50;0.40;;;15.90;99.90;;;;;;5033587;28;20819;-85
2021/08/19 03:39:13;;;;;;;1.87;0.40;;;15.90;99.90;;;;;;5033281;28;20478;-84
2021/08/19 03:41:40;;;;;;;0.37;0.33;;;15.90;99.90;;;;;;5033173;28;20934;-84
2021/08/19 03:44:09;;;;;;;0.40;0.40;;;15.90;99.90;;;;;;5033569;28;20447;-85
2021/08/19 03:46:37;;;;;;;0.40;0.30;;;15.90;99.90;;;;;;5033460;28;20454;-85
2021/08/19 03:49:04;;;;;;;0.40;0.30;;;15.90;99.90;;;;;;5033420;28;20493;-85
2021/08/19 03:51:31;;;;;;;0.43;0.33;;;16.00;99.90;;;;;;5033115;28;20439;-85
2021/08/19 03:53:58;;;;;;;0.60;0.50;;;15.90;99.90;;;;;;5033184;28;20481;-85
2021/08/19 03:56:28;;;;;;;0.40;0.30;;;15.90;99.90;;;;;;5033329;28;20486;-85
2021/08/19 03:58:55;;;;;;;0.50;0.40;;;15.90;99.90;;;;;;5035264;28;20489;-84
2021/08/19 04:01:21;;;;;;;0.40;0.30;;;15.90;99.90;;;;;;5033406;28;20451;-85
2021/08/19 04:03:50;;;;;;;0.37;0.33;;;15.90;99.90;;;;;;5033353;28;20824;-85
2021/08/19 04:06:16;;;;;;;0.40;0.40;;;16.00;99.90;;;;;;5033207;28;20442;-85
2021/08/19 04:08:43;;;;;;;0.60;0.40;;;15.90;99.90;;;;;;5033208;28;20454;-85
2021/08/19 04:11:10;;;;;;;0.40;0.40;;;15.90;99.90;;;;;;5033151;28;20447;-85
2021/08/19 04:13:39;;;;;;;1.50;0.47;;;15.90;99.90;;;;;;5033106;28;20471;-85
2021/08/19 04:16:06;;;;;;;0.40;0.30;;;15.90;99.90;;;;;;5033029;28;20489;-85
2021/08/19 04:18:32;;;;;;;0.40;0.33;;;15.90;99.90;;;;;;5033085;28;20451;-85
2021/08/19 04:21:01;;;;;;;0.30;0.30;;;15.80;99.90;;;;;;5033100;28;20454;-85
2021/08/19 04:23:28;;;;;;;0.40;0.30;;;15.80;99.90;;;;;;5033006;28;20459;-85
2021/08/19 04:25:54;;;;;;;0.30;0.30;;;15.80;99.90;;;;;;5033077;28;20450;-85
2021/08/19 04:28:21;;;;;;;0.40;0.30;;;15.70;99.90;;;;;;5033017;28;20455;-85
2021/08/19 04:30:48;;;;;;;0.50;0.50;;;15.70;99.90;;;;;;5032992;28;20441;-85
2021/08/19 04:33:14;;;;;;;0.30;0.30;;;15.70;99.90;;;;;;5032952;28;20466;-85
2021/08/19 04:35:42;;;;;;;0.40;0.40;;;15.70;99.90;;;;;;5032964;28;20489;-85
2021/08/19 04:38:10;;;;;;;1.63;0.80;;;15.60;99.90;;;;;;5032767;28;20461;-85
2021/08/19 04:40:37;;;;;;;0.63;0.50;;;15.60;99.90;;;;;;5032697;28;20532;-85
2021/08/19 04:43:04;;;;;;;0.37;0.30;;;15.70;99.90;;;;;;5033153;28;20467;-86
2021/08/19 04:45:31;;;;;;;0.40;0.33;;;15.60;99.90;;;;;;5036594;28;20453;-85
2021/08/19 04:47:58;;;;;;;0.50;0.40;;;15.60;99.90;;;;;;5036631;28;20450;-85
2021/08/19 04:50:24;;;;;;;0.30;0.30;;;15.60;99.90;;;;;;5036469;28;20473;-85
2021/08/19 04:52:51;;;;;;;0.50;0.30;;;15.60;99.90;;;;;;5036239;28;20465;-85
2021/08/19 04:55:19;;;;;;;0.30;0.30;;;15.70;99.90;;;;;;5036226;28;20481;-85
2021/08/19 04:57:46;;;;;;;0.40;0.40;;;15.70;99.90;;;;;;5036152;28;20442;-85
2021/08/19 05:00:13;;;;;;;0.30;0.30;;;15.70;99.90;;;;;;5036034;28;20455;-85
2021/08/19 05:02:40;;;;;;;0.30;0.30;;;15.70;99.90;;;;;;5036016;28;20462;-85
2021/08/19 05:05:08;;;;;;;0.63;0.40;;;15.70;99.90;;;;;;5036461;28;20449;-85
2021/08/19 05:07:34;;;;;;;1.43;0.30;;;15.70;99.90;;;;;;5036247;28;20450;-85
2021/08/19 05:10:01;;;;;;;0.30;0.30;;;15.70;99.90;;;;;;5036682;28;20812;-85
2021/08/19 05:12:29;;;;;;;0.53;0.30;;;15.70;99.90;;;;;;5036195;28;20473;-85
2021/08/19 05:14:56;;;;;;;0.37;0.30;;;15.70;99.90;;;;;;5035774;28;20474;-85
2021/08/19 05:17:23;;;;;;;0.30;0.30;;;15.70;99.90;;;;;;5036142;28;20443;-85
2021/08/19 05:19:50;;;;;;;0.40;0.40;;;15.70;99.90;;;;;;5036388;28;20457;-84
2021/08/19 05:22:16;;;;;;;0.40;0.30;;;15.70;99.90;;;;;;5037096;28;20477;-85
2021/08/19 05:24:43;;;;;;;0.40;0.40;;;15.70;99.90;;;;;;5035906;28;20442;-85
2021/08/19 05:27:10;;;;;;;0.30;0.30;;;15.70;99.90;;;;;;5035586;28;20946;-85
2021/08/19 05:29:38;;;;;;;0.37;0.30;;;15.70;99.90;;;;;;5035511;28;20818;-84
2021/08/19 05:32:05;;;;;;;0.33;0.33;;;15.70;99.90;;;;;;5035705;28;20474;-85
2021/08/19 05:34:32;;;;;;;1.03;0.53;;;15.70;99.90;;;;;;5035540;28;20481;-85
2021/08/19 05:36:59;;;;;;;0.30;0.30;;;15.70;99.90;;;;;;5035433;28;20450;-85
2021/08/19 05:39:25;;;;;;;0.40;0.30;;;15.70;99.90;;;;;;5035141;28;20998;-84
2021/08/19 05:41:52;;;;;;;0.83;0.43;;;15.70;99.90;;;;;;5035205;28;20978;-85
2021/08/19 05:44:19;;;;;;;0.50;0.47;;;15.70;99.90;;;;;;5035289;28;20446;-84
2021/08/19 05:46:47;;;;;;;0.60;0.40;;;15.70;99.90;;;;;;5035207;28;20435;-80
2021/08/19 05:49:14;;;;;;;0.40;0.30;;;15.80;99.90;;;;;;5035421;28;20454;-80
2021/08/19 05:51:40;;;;;;;0.40;0.40;;;15.70;99.90;;;;;;5035312;28;20451;-80
2021/08/19 05:54:07;;;;;;;0.40;0.40;;;15.80;99.90;;;;;;5035046;28;20435;-79
2021/08/19 05:56:34;;;;;;;0.80;0.67;;;15.80;99.90;;;;;;5034662;28;20491;-79
2021/08/19 05:59:01;;;;;;;0.40;0.40;;;15.80;99.90;;;;;;5034948;28;20454;-79
2021/08/19 06:01:27;;;;;;;0.30;0.30;;;15.80;99.90;;;;;;5035102;28;20457;-79
2021/08/19 06:03:55;;;;;;;0.73;0.30;;;15.80;99.90;;;;;;5035142;28;20813;-79
2021/08/19 06:06:22;;;;;;;0.43;0.40;;;15.80;99.90;;;;;;5034763;28;20938;-79
2021/08/19 06:08:49;;;;;;;0.67;0.50;;;15.90;99.90;;;;;;5034862;28;20449;-79
2021/08/19 06:11:16;;;;;;;0.30;0.30;;;15.90;99.90;;;;;;5035015;28;20447;-79
2021/08/19 06:13:42;;;;;;;1.23;0.60;;;16.00;99.90;;;;;;5034868;28;20470;-79
2021/08/19 06:16:09;;;;;;;0.93;0.40;;;16.00;99.90;;;;;;5034556;28;20479;-79
2021/08/19 06:18:36;;;;;;;0.40;0.30;;;16.10;99.90;;;;;;5034859;28;20446;-79
2021/08/19 06:21:04;;;;;;;0.50;0.40;;;16.10;99.90;;;;;;5034484;28;20946;-79
2021/08/19 06:23:31;;;;;;;0.80;0.30;;;16.20;99.90;;;;;;5034690;28;20878;-79
2021/08/19 06:25:58;;;;;;;0.53;0.53;;;16.20;99.90;;;;;;5034432;28;20934;-79
2021/08/19 06:28:25;;;;;;;0.30;0.30;;;16.20;99.90;;;;;;5034719;28;20438;-79
2021/08/19 06:30:53;;;;;;;0.40;0.30;;;16.30;99.90;;;;;;5034644;28;20528;-78
2021/08/19 06:33:20;;;;;;;0.40;0.30;;;16.40;99.90;;;;;;5034270;28;20455;-79
2021/08/19 06:35:47;;;;;;;0.40;0.40;;;16.40;99.90;;;;;;5034481;28;20486;-79
2021/08/19 06:38:15;;;;;;;0.40;0.40;;;16.40;99.90;;;;;;5034471;28;20454;-79
2021/08/19 06:40:42;;;;;;;0.83;0.40;;;16.40;99.90;;;;;;5033782;28;20479;-79
2021/08/19 06:43:09;;;;;;;0.40;0.40;;;16.50;99.90;;;;;;5034036;28;20533;-79
2021/08/19 06:45:36;;;;;;;0.40;0.40;;;16.50;99.90;;;;;;5034354;28;20439;-79
2021/08/19 06:48:03;;;;;;;0.47;0.47;;;16.60;99.90;;;;;;5034281;28;20438;-79
2021/08/19 06:50:30;;;;;;;0.30;0.30;;;16.70;99.90;;;;;;5034269;28;20443;-78
2021/08/19 06:52:57;;;;;;;0.30;0.30;;;16.70;99.90;;;;;;5033901;28;20817;-80
2021/08/19 06:55:27;;;;;;;0.50;0.50;;;16.80;99.90;;;;;;5034068;28;20489;-79
2021/08/19 06:57:54;;;;;;;0.40;0.30;;;16.80;99.90;;;;;;5034191;28;20443;-79
2021/08/19 07:00:21;;;;;;;1.63;0.40;;;16.80;99.90;;;;;;5033802;28;20437;-79
2021/08/19 07:02:47;;;;;;;0.40;0.40;;;16.90;99.90;;;;;;5034036;28;20812;-85
2021/08/19 07:05:14;;;;;;;0.30;0.30;;;17.00;99.90;;;;;;5034061;28;20427;-85
2021/08/19 07:07:41;;;;;;;0.30;0.30;;;17.10;99.90;;;;;;5033669;28;20477;-85
2021/08/19 07:10:09;;;;;;;0.40;0.30;;;17.20;99.90;;;;;;5033982;28;20462;-85
2021/08/19 07:12:38;;;;;;;0.33;0.30;;;17.30;99.90;;;;;;5033944;28;20470;-85
2021/08/19 07:15:06;;;;;;;0.40;0.40;;;17.40;99.90;;;;;;5033889;28;20835;-85
2021/08/19 07:17:33;;;;;;;0.40;0.37;;;17.50;99.90;;;;;;5033949;28;20430;-85
2021/08/19 07:20:00;;;;;;;0.40;0.40;;;17.60;99.90;;;;;;5033560;28;20470;-85
2021/08/19 07:22:27;;;;;;;0.70;0.60;;;17.70;99.90;;;;;;5033746;28;20587;-85
2021/08/19 07:24:54;;;;;;;1.17;0.50;;;17.80;99.90;;;;;;5033793;28;20443;-85
2021/08/19 07:27:21;;;;;;;0.30;0.30;;;17.90;99.90;;;;;;5033501;28;20427;-84
2021/08/19 07:29:49;;;;;;;0.67;0.50;;;18.00;99.90;;;;;;5033731;28;20467;-85
2021/08/19 07:32:19;;;;;;;0.93;0.40;;;18.10;99.90;;;;;;5033303;28;20980;-85
2021/08/19 07:34:46;;;;;;;1.03;0.30;;;18.10;99.90;;;;;;5033587;28;20439;-85
2021/08/19 07:37:13;;;;;;;0.77;0.50;;;18.10;99.90;;;;;;5033255;28;20972;-85
2021/08/19 07:39:40;;;;;;;0.30;0.30;;;18.10;99.90;;;;;;5033016;28;20537;-85
2021/08/19 07:42:06;;;;;;;0.40;0.40;;;18.10;99.90;;;;;;5033429;28;20479;-84
2021/08/19 07:44:33;;;;;;;2.73;0.43;;;18.20;99.90;;;;;;5033244;28;20809;-85
2021/08/19 07:47:01;;;;;;;0.50;0.50;;;18.30;99.90;;;;;;5033492;28;20446;-84
2021/08/19 07:49:28;;;;;;;0.40;0.40;;;18.50;99.90;;;;;;5036431;28;20447;-85
2021/08/19 07:51:55;;;;;;;0.40;0.33;;;18.60;99.90;;;;;;5033381;28;20470;-84
2021/08/19 07:54:21;;;;;;;0.30;0.20;;;18.80;99.90;;;;;;5033395;28;20447;-85
2021/08/19 07:56:48;;;;;;;0.43;0.40;;;18.90;99.90;;;;;;5033381;28;20565;-84
2021/08/19 07:59:15;;;;;;;0.50;0.43;;;18.90;99.90;;;;;;5033301;28;20455;-85
2021/08/19 08:01:42;;;;;;;0.40;0.30;;;19.00;99.90;;;;;;5033276;28;20449;-85
2021/08/19 08:04:10;;;;;;;2.10;0.50;;;19.00;99.90;;;;;;5033256;28;20469;-84
2021/08/19 08:06:37;;;;;;;0.40;0.40;;;19.00;99.90;;;;;;5033946;28;20435;-85
2021/08/19 08:09:04;;;;;;;0.50;0.40;;;19.00;99.90;;;;;;5033438;28;20442;-85
2021/08/19 08:11:31;;;;;;;0.57;0.50;;;19.00;99.90;;;;;;5033198;28;20819;-84
2021/08/19 08:13:58;;;;;;;0.60;0.50;;;19.00;99.90;;;;;;5033260;28;20463;-85
2021/08/19 08:16:26;;;;;;;0.50;0.30;;;19.00;99.90;;;;;;5032924;28;20482;-85
2021/08/19 08:18:54;;;;;;;0.80;0.40;;;19.10;99.90;;;;;;5034597;28;20461;-85
2021/08/19 08:21:23;;;;;;;0.40;0.40;;;19.20;99.90;;;;;;5037247;28;20465;-84
2021/08/19 08:23:53;;;;;;;0.50;0.50;;;19.30;99.90;;;;;;5037173;28;20546;-84
2021/08/19 08:26:20;;;;;;;0.70;0.30;;;19.30;99.90;;;;;;5036820;28;20914;-85
2021/08/19 08:28:49;;;;;;;0.50;0.30;;;19.40;99.90;;;;;;5036948;28;20902;-85
2021/08/19 08:31:16;;;;;;;0.43;0.40;;;19.50;99.90;;;;;;5037025;28;20433;-84
2021/08/19 08:33:45;;;;;;;0.40;0.40;;;19.60;99.90;;;;;;5036662;28;20551;-85
2021/08/19 08:36:12;;;;;;;0.80;0.57;;;19.60;99.90;;;;;;5037058;28;20476;-85
2021/08/19 08:38:40;;;;;;;0.40;0.33;;;19.70;99.90;;;;;;5036945;28;20421;-85
2021/08/19 08:41:08;;;;;;;0.40;0.40;;;19.70;99.90;;;;;;5036684;28;20441;-84
2021/08/19 08:43:37;;;;;;;1.07;0.40;;;19.80;99.90;;;;;;5036931;28;20532;-88
2021/08/19 08:46:07;;;;;;;0.40;0.40;;;19.80;99.90;;;;;;5037054;28;20506;-85
2021/08/19 08:48:36;;;;;;;0.70;0.40;;;19.80;99.90;;;;;;5036787;28;20430;-85
2021/08/19 08:51:03;;;;;;;0.40;0.40;;;19.90;99.90;;;;;;5036740;28;20892;-85
2021/08/19 08:53:29;;;;;;;0.40;0.40;;;20.00;99.90;;;;;;5036339;28;20995;-85
2021/08/19 08:55:58;;;;;;;0.40;0.40;;;20.00;99.90;;;;;;5036802;28;20458;-84
2021/08/19 08:58:24;;;;;;;0.80;0.37;;;20.10;99.90;;;;;;5036573;28;20435;-85
2021/08/19 09:00:51;;;;;;;0.40;0.40;;;20.20;99.90;;;;;;5036400;28;20417;-85
2021/08/19 09:03:20;;;;;;;0.50;0.50;;;20.30;99.90;;;;;;5036576;28;20470;-85
2021/08/19 10:17:48;;;;;;;0.70;0.43;;;20.30;99.90;;;;;;6169376;22;20432;31
2021/08/19 10:20:27;;;;;;;0.33;0.33;;;20.40;99.90;;;;;;4990958;28;20483;-85
2021/08/19 10:22:56;;;;;;;0.53;0.40;;;20.50;99.90;;;;;;4985304;28;20983;-84
2021/08/19 10:25:26;;;;;;;5.03;0.60;;;20.60;99.90;;;;;;4976741;28;20964;-75
2021/08/19 10:28:26;;;;;;;0.40;0.40;;;20.60;99.90;;;;;;4977310;28;20460;-85
2021/08/19 10:30:55;;;;;;;0.40;0.40;;;20.70;99.90;;;;;;4977791;28;20496;-83
2021/08/19 10:33:43;;;;;;;0.60;0.40;;;20.80;99.90;;;;;;4976260;28;20980;-84
2021/08/19 10:36:50;;;;;;;0.50;0.40;;;20.80;99.90;;;;;;4976461;28;20890;-84
2021/08/19 10:39:41;;;;;;;1.90;0.50;;;20.90;99.90;;;;;;4977108;28;20433;-85
2021/08/19 10:42:27;;;;;;;0.40;0.40;;;21.00;99.90;;;;;;4976733;28;20453;-84
2021/08/19 10:44:54;;;;;;;0.40;0.30;;;21.20;99.90;;;;;;4976927;28;20814;-85
2021/08/19 10:47:35;;;;;;;0.67;0.30;;;21.30;99.90;;;;;;4976658;28;20897;-84
2021/08/19 10:50:26;;;;;;;0.50;0.40;;;21.30;99.90;;;;;;4976936;28;20433;-84
2021/08/19 10:52:58;;;;;;;0.30;0.30;;;21.40;99.90;;;;;;4976679;28;20461;-85
2021/08/19 10:55:25;;;;;;;0.40;0.40;;;21.20;99.90;;;;;;4976594;28;20959;-84
2021/08/19 10:57:55;;;;;;;0.30;0.30;;;21.20;99.90;;;;;;4976497;28;20480;-84
2021/08/19 11:00:42;;;;;;;0.40;0.40;;;21.30;99.90;;;;;;4976379;28;20497;-84
2021/08/19 11:03:30;;;;;;;0.40;0.40;;;21.40;99.90;;;;;;4976977;28;20476;-85
2021/08/19 11:05:57;;;;;;;1.17;0.40;;;21.40;99.90;;;;;;4976145;28;20964;-84
2021/08/19 11:08:42;;;;;;;0.50;0.40;;;21.40;99.90;;;;;;4976513;28;20433;-84
2021/08/19 11:11:10;;;;;;;0.40;0.40;;;21.50;99.90;;;;;;4976467;28;20936;-84
2021/08/19 11:13:37;;;;;;;0.40;0.40;;;21.40;99.90;;;;;;4976264;28;20465;-83
2021/08/19 11:16:10;;;;;;;0.40;0.40;;;21.30;99.90;;;;;;4975976;28;20981;-85
2021/08/19 11:18:38;;;;;;;0.93;0.47;;;21.30;99.90;;;;;;4975833;28;20493;-85
2021/08/19 11:21:06;;;;;;;0.40;0.30;;;21.20;99.90;;;;;;4976011;28;20500;-85
2021/08/19 11:23:36;;;;;;;0.40;0.40;;;21.10;99.90;;;;;;4976161;28;20567;-85
2021/08/19 11:26:06;;;;;;;0.40;0.40;;;21.10;99.90;;;;;;4976050;28;20524;-84
2021/08/19 11:28:41;;;;;;;0.50;0.40;;;21.20;99.90;;;;;;4975635;28;20433;-84
2021/08/19 11:31:17;;;;;;;0.40;0.30;;;21.20;99.90;;;;;;4976591;28;20475;-86
2021/08/19 11:33:45;;;;;;;0.40;0.30;;;21.10;99.90;;;;;;4975789;28;20469;-85
2021/08/19 11:36:13;;;;;;;0.50;0.33;;;21.20;99.90;;;;;;4976103;28;20472;-85
2021/08/19 11:38:41;;;;;;;0.30;0.30;;;21.20;99.90;;;;;;4975823;28;20420;-85
2021/08/19 11:41:29;;;;;;;0.30;0.30;;;21.20;99.90;;;;;;4976081;28;20437;-86
2021/08/19 11:43:59;;;;;;;0.40;0.40;;;21.10;99.90;;;;;;4976043;28;20905;-85
2021/08/19 11:46:27;;;;;;;0.50;0.30;;;21.10;99.90;;;;;;4975722;28;20434;-85
2021/08/19 11:48:56;;;;;;;0.43;0.40;;;21.10;99.90;;;;;;4975732;28;20451;-84
2021/08/19 11:51:28;;;;;;;2.57;0.73;;;21.20;99.90;;;;;;4975710;28;20433;-85
2021/08/19 11:53:58;;;;;;;0.40;0.30;;;21.10;99.90;;;;;;4974191;28;21033;-84
2021/08/19 11:56:29;;;;;;;0.30;0.30;;;21.10;99.90;;;;;;4975223;28;20464;-85
2021/08/19 11:59:03;;;;;;;1.30;0.47;;;21.20;99.90;;;;;;4974536;28;20444;-85
2021/08/19 12:01:31;;;;;;;0.30;0.30;;;21.20;99.90;;;;;;4975300;28;20436;-85
2021/08/19 12:03:58;;;;;;;0.40;0.33;;;21.30;99.90;;;;;;4975745;28;20507;-85
2021/08/19 12:06:27;;;;;;;0.30;0.30;;;21.40;99.90;;;;;;4975563;28;20515;-85
2021/08/19 12:08:56;;;;;;;0.40;0.30;;;21.50;99.90;;;;;;4975506;28;20456;-85
2021/08/19 12:11:25;;;;;;;0.40;0.40;;;21.50;99.90;;;;;;4975759;28;20456;-85
2021/08/19 12:13:54;;;;;;;0.40;0.30;;;21.50;99.90;;;;;;4975925;28;20936;-85
2021/08/19 12:16:22;;;;;;;0.30;0.20;;;21.60;99.90;;;;;;4975108;28;20477;-85
2021/08/19 12:19:08;;;;;;;1.00;0.50;;;21.60;99.90;;;;;;4974908;28;20453;-85
2021/08/19 12:21:35;;;;;;;0.40;0.40;;;21.50;99.90;;;;;;4975434;28;20463;-85
2021/08/19 12:24:10;;;;;;;0.63;0.40;;;21.50;99.90;;;;;;4975044;28;20543;-85
2021/08/19 12:26:37;;;;;;;2.10;0.43;;;21.50;99.90;;;;;;4975234;28;20451;-85
2021/08/19 12:29:06;;;;;;;0.93;0.50;;;21.50;99.90;;;;;;4975139;28;20460;-84
2021/08/19 12:31:47;;;;;;;0.50;0.40;;;21.50;99.90;;;;;;4975187;28;20805;-85
2021/08/19 12:34:14;;;;;;;0.30;0.30;;;21.50;99.90;;;;;;4975678;28;20449;-86
2021/08/19 12:36:41;;;;;;;0.40;0.40;;;21.50;99.90;;;;;;4975180;28;20855;-85
2021/08/19 12:39:21;;;;;;;0.40;0.30;;;21.50;99.90;;;;;;4975231;28;20801;-85
2021/08/19 12:41:49;;;;;;;0.60;0.40;;;21.60;99.90;;;;;;4976348;28;20479;-85
2021/08/19 12:44:20;;;;;;;0.40;0.30;;;21.60;99.90;;;;;;4975200;28;20495;-84
2021/08/19 12:46:48;;;;;;;0.60;0.40;;;21.60;99.90;;;;;;4975093;28;20428;-85
2021/08/19 12:49:25;;;;;;;0.40;0.30;;;21.60;99.90;;;;;;4974844;28;20436;-85
2021/08/19 12:52:11;;;;;;;0.40;0.30;;;21.50;99.90;;;;;;4974891;28;20460;-85
2021/08/19 12:54:38;;;;;;;0.40;0.40;;;21.50;99.90;;;;;;4975152;28;20449;-85
2021/08/19 12:57:05;;;;;;;0.47;0.40;;;21.50;99.90;;;;;;4975066;28;20488;-85
2021/08/19 12:59:34;;;;;;;0.70;0.50;;;21.40;99.90;;;;;;4974923;28;20456;-85
2021/08/19 13:02:01;;;;;;;0.60;0.40;;;21.50;99.90;;;;;;4974897;28;20477;-84
2021/08/19 13:48:17;;;;;;;0.40;0.30;;;21.30;99.90;;;;;;6172340;22;20368;-85
2021/08/19 13:50:51;;;;;;;0.50;0.50;;;21.40;99.90;;;;;;5035289;28;20454;-85
2021/08/19 13:53:24;;;;;;;0.30;0.30;;;21.30;99.90;;;;;;5035154;28;20469;-85
2021/08/19 13:58:42;;;;;;;0.60;0.40;;;21.40;99.90;;;;;;4979741;28;20769;-85
2021/08/19 14:01:19;;;;;;;0.60;0.40;;;21.40;99.90;;;;;;5035484;28;20418;-85
2021/08/19 14:04:17;;;;;;;0.90;0.43;;;21.40;99.90;;;;;;5035228;28;20464;-85
2021/08/19 14:06:50;;;;;;;0.70;0.60;;;21.30;99.90;;;;;;5035251;28;20446;-86
2021/08/19 14:53:49;;;;;;;0.43;0.37;;;20.80;99.90;;;;;;4959500;28;20947;-87
2021/08/19 15:03:15;;;;;;;1.10;0.40;;;20.80;99.90;;;;;;5002367;28;20495;-86
2021/08/19 15:19:39;;;;;;;0.40;0.30;;;20.70;99.90;;;;;;5009128;28;20443;-86
2021/08/19 15:22:13;;;;;;;0.40;0.30;;;20.70;99.90;;;;;;5011636;28;20479;-86
2021/08/19 15:41:54;;;;;;;0.60;0.57;;;20.70;99.90;;;;;;4931862;29;20482;-86
2021/08/19 15:44:21;;;;;;;0.60;0.40;;;20.70;99.90;;;;;;4934324;29;20422;-86
2021/08/19 15:46:48;;;;;;;0.70;0.40;;;20.60;99.90;;;;;;4939926;28;20460;-86
2021/08/19 15:49:14;;;;;;;0.43;0.43;;;20.60;99.90;;;;;;5007138;28;21032;-85
2021/08/19 15:51:41;;;;;;;0.40;0.30;;;20.60;99.90;;;;;;5033124;28;20446;-85
2021/08/19 15:54:08;;;;;;;1.00;0.40;;;20.60;99.90;;;;;;5033645;28;20907;-86
2021/08/19 15:56:35;;;;;;;0.60;0.40;;;20.60;99.90;;;;;;5033577;28;20415;-86
2021/08/19 15:59:05;;;;;;;0.40;0.30;;;20.60;99.90;;;;;;5033442;28;20417;-85
2021/08/19 16:01:31;;;;;;;0.50;0.50;;;20.60;99.90;;;;;;5033336;28;20434;-85
2021/08/19 16:03:58;;;;;;;0.40;0.30;;;20.60;99.90;;;;;;5033690;28;20415;-86
2021/08/19 16:06:25;;;;;;;0.47;0.30;;;20.50;99.90;;;;;;5033774;28;20451;-86
2021/08/19 16:08:52;;;;;;;0.30;0.30;;;20.50;99.90;;;;;;5033444;28;20474;-85
2021/08/19 16:11:19;;;;;;;0.30;0.30;;;20.50;99.90;;;;;;5033570;28;20520;-86
2021/08/19 16:13:46;;;;;;;0.40;0.30;;;20.50;99.90;;;;;;5033125;28;20455;-86
2021/08/19 16:16:14;;;;;;;0.40;0.30;;;20.50;99.90;;;;;;5033860;28;20924;-86